Laconia, NH

5:43 AM EDT on March 27, 2017 (GMT -0400)
Laconia Municipal

Weather History for KLCI - November, 2014

Change the Weather History Date:

Sunday, November 2, 2014

  Actual Average Record
Temperature  
Mean Temperature 38 °F -  
Max Temperature 39 °F 54 °F 69 °F (2001)
Min Temperature 35 °F 35 °F 21 °F (2002)
Degree Days  
Heating Degree Days 27    
Moisture  
Dew Point 22 °F    
Average Humidity 54    
Maximum Humidity 70    
Minimum Humidity 33    
Precipitation  
Precipitation 0.00 in - - ()
Sea Level Pressure  
Sea Level Pressure 29.75 in    
Wind  
Wind Speed 11 mph (NW)    
Max Wind Speed 23 mph    
Max Gust Speed 39 mph    
Visibility 10 miles    
Events      
Averages and records for this station are not official NWS values.
T = Trace of Precipitation, MM = Missing Value Source: NWS Daily Summary

Daily Weather History Graph

Daily Weather History Graph

Search for Another Location

Airport or City:

Trip Planner

Search our weather history database for the weather conditions in past years. The results will help you decide how hot, cold, wet, or windy it might be!

Date:

Astronomy

Nov. 02, 2014 Rise Set
Actual Time 6:22 AM EST 4:35 PM EST
Civil Twilight 5:52 AM EST 5:05 PM EST
Nautical Twilight 5:18 AM EST 5:39 PM EST
Astronomical Twilight 4:45 AM EST 6:12 PM EST
Moon 2:13 PM EST (11/2) 1:12 AM EST (11/2)
Length of Visible Light 11h 12m
Length of Day
10h 12m
Waxing Gibbous, 78% of the Moon is Illuminated
Nov 2
Waxing Gibbous
Nov 6
Full
Nov 14
Last Quarter
Nov 22
New
Nov 29
First Quarter

Hourly Weather History & Observations

Time (EST) Temp. Windchill Dew Point Humidity Pressure Visibility Wind Dir Wind Speed Gust Speed Precip Events Conditions
12:15 AM 39.2 °F 32.0 °F 30.2 °F 70% 29.87 in 10.0 mi NNW 11.5 mph 16.1 mph N/A   Overcast
12:35 AM 39.2 °F 34.2 °F 28.4 °F 65% 29.87 in 10.0 mi North 6.9 mph 16.1 mph N/A   Overcast
12:55 AM 39.2 °F 32.0 °F 30.2 °F 70% 29.88 in 10.0 mi NNE 11.5 mph - N/A   Overcast
1:15 AM 39.2 °F 32.5 °F 28.4 °F 65% 29.88 in 10.0 mi NNE 10.4 mph 17.3 mph N/A   Overcast
1:35 AM 39.2 °F 35.0 °F 28.4 °F 65% 29.86 in 10.0 mi North 5.8 mph - N/A   Overcast
1:55 AM 39.2 °F 34.2 °F 30.2 °F 70% 29.86 in 10.0 mi NW 6.9 mph - N/A   Overcast
1:15 AM 39.2 °F 33.6 °F 30.2 °F 70% 29.85 in 10.0 mi NNW 8.1 mph - N/A   Overcast
1:35 AM 39.2 °F 33.6 °F 30.2 °F 70% 29.84 in 10.0 mi NNW 8.1 mph - N/A   Overcast
1:55 AM 39.2 °F 35.0 °F 30.2 °F 70% 29.83 in 10.0 mi North 5.8 mph - N/A   Overcast
2:15 AM 39.2 °F 33.6 °F 28.4 °F 65% 29.81 in 10.0 mi NNW 8.1 mph - N/A   Scattered Clouds
2:35 AM 37.4 °F 32.1 °F 28.4 °F 70% 29.81 in 10.0 mi North 6.9 mph - N/A   Scattered Clouds
2:55 AM 39.2 °F 35.9 °F 30.2 °F 70% 29.82 in 10.0 mi NW 4.6 mph - N/A   Overcast
3:15 AM 39.2 °F 35.0 °F 28.4 °F 65% 29.83 in 10.0 mi NNW 5.8 mph - N/A   Overcast
3:35 AM 39.2 °F 34.2 °F 28.4 °F 65% 29.82 in 10.0 mi North 6.9 mph - N/A   Overcast
3:55 AM 39.2 °F 33.0 °F 28.4 °F 65% 29.82 in 10.0 mi North 9.2 mph 19.6 mph N/A   Overcast
4:15 AM 39.2 °F 33.6 °F 28.4 °F 65% 29.81 in 10.0 mi North 8.1 mph 20.7 mph N/A   Overcast
4:35 AM 39.2 °F 31.6 °F 26.6 °F 61% 29.82 in 10.0 mi North 12.7 mph 18.4 mph N/A   Overcast
4:55 AM 39.2 °F 32.0 °F 28.4 °F 65% 29.81 in 10.0 mi North 11.5 mph 17.3 mph N/A   Overcast
5:15 AM 39.2 °F 35.0 °F 28.4 °F 65% 29.80 in 10.0 mi North 5.8 mph - N/A   Overcast
5:35 AM 39.2 °F 35.0 °F 28.4 °F 65% 29.80 in 10.0 mi NNW 5.8 mph - N/A   Overcast
5:55 AM 39.2 °F 34.2 °F 28.4 °F 65% 29.79 in 10.0 mi NNW 6.9 mph - N/A   Overcast
6:15 AM 39.2 °F 32.5 °F 28.4 °F 65% 29.77 in 10.0 mi North 10.4 mph 18.4 mph N/A   Overcast
6:35 AM 39.2 °F 33.0 °F 28.4 °F 65% 29.77 in 10.0 mi NNW 9.2 mph - N/A   Overcast
6:55 AM 39.2 °F 33.0 °F 26.6 °F 61% 29.77 in 10.0 mi NNW 9.2 mph 17.3 mph N/A   Overcast
7:15 AM 37.4 °F 29.3 °F 26.6 °F 65% 29.76 in 10.0 mi NNW 12.7 mph 18.4 mph N/A   Overcast
7:35 AM 37.4 °F 28.9 °F 26.6 °F 65% 29.75 in 10.0 mi NNW 13.8 mph 18.4 mph N/A   Mostly Cloudy
7:55 AM 37.4 °F 30.8 °F 26.6 °F 65% 29.74 in 10.0 mi NNW 9.2 mph - N/A   Scattered Clouds
8:15 AM 37.4 °F 29.8 °F 26.6 °F 65% 29.73 in 10.0 mi NNW 11.5 mph 18.4 mph N/A   Mostly Cloudy
8:35 AM 37.4 °F 29.8 °F 24.8 °F 60% 29.73 in 10.0 mi NNW 11.5 mph 21.9 mph N/A   Overcast
8:55 AM 37.4 °F 29.3 °F 24.8 °F 60% 29.73 in 10.0 mi NNW 12.7 mph 18.4 mph N/A   Mostly Cloudy
9:15 AM 37.4 °F 28.9 °F 24.8 °F 60% 29.73 in 10.0 mi NW 13.8 mph 23.0 mph N/A   Overcast
9:35 AM 37.4 °F 30.3 °F 24.8 °F 60% 29.73 in 10.0 mi NW 10.4 mph 21.9 mph N/A   Overcast
9:55 AM 37.4 °F 28.9 °F 23.0 °F 56% 29.72 in 10.0 mi NW 13.8 mph 23.0 mph N/A   Overcast
10:15 AM 37.4 °F 28.5 °F 24.8 °F 60% 29.72 in 10.0 mi NW 15.0 mph 21.9 mph N/A   Overcast
10:35 AM 37.4 °F 28.2 °F 24.8 °F 60% 29.71 in 10.0 mi NW 16.1 mph 26.5 mph N/A   Overcast
10:55 AM 37.4 °F 27.5 °F 24.8 °F 60% 29.70 in 10.0 mi NW 18.4 mph 27.6 mph N/A   Overcast
11:15 AM 37.4 °F 27.8 °F 24.8 °F 60% 29.69 in 10.0 mi NW 17.3 mph 28.8 mph N/A   Overcast
11:35 AM 37.4 °F 28.5 °F 24.8 °F 60% 29.68 in 10.0 mi NW 15.0 mph 26.5 mph N/A   Mostly Cloudy
11:55 AM 37.4 °F 29.3 °F 23.0 °F 56% 29.68 in 10.0 mi NW 12.7 mph 27.6 mph N/A   Overcast
12:15 PM 37.4 °F 27.8 °F 23.0 °F 56% 29.67 in 10.0 mi NW 17.3 mph 27.6 mph N/A   Overcast
12:35 PM 37.4 °F 28.5 °F 23.0 °F 56% 29.66 in 10.0 mi NW 15.0 mph 26.5 mph N/A   Mostly Cloudy
12:55 PM 37.4 °F 28.5 °F 21.2 °F 52% 29.66 in 10.0 mi WNW 15.0 mph 32.2 mph N/A   Partly Cloudy
1:15 PM 37.4 °F 26.6 °F 21.2 °F 52% 29.66 in 10.0 mi WNW 21.9 mph 31.1 mph N/A   Clear
1:35 PM 37.4 °F 27.8 °F 21.2 °F 52% 29.66 in 10.0 mi WNW 17.3 mph 32.2 mph N/A   Clear
1:55 PM 37.4 °F 27.2 °F 21.2 °F 52% 29.67 in 10.0 mi NW 19.6 mph 35.7 mph N/A   Clear
2:15 PM 39.2 °F 29.8 °F 19.4 °F 45% 29.67 in 10.0 mi WNW 18.4 mph 34.5 mph N/A   Clear
2:35 PM 39.2 °F 29.3 °F 19.4 °F 45% 29.67 in 10.0 mi WNW 20.7 mph 29.9 mph N/A   Clear
2:55 PM 39.2 °F 31.2 °F 19.4 °F 45% 29.68 in 10.0 mi WNW 13.8 mph 28.8 mph N/A   Clear
3:15 PM 39.2 °F 30.5 °F 19.4 °F 45% 29.68 in 10.0 mi WNW 16.1 mph 34.5 mph N/A   Clear
3:35 PM 39.2 °F 29.0 °F 19.4 °F 45% 29.69 in 10.0 mi NW 21.9 mph 34.5 mph N/A   Clear
3:55 PM 39.2 °F 29.0 °F 17.6 °F 42% 29.70 in 10.0 mi NW 21.9 mph 32.2 mph N/A   Clear
4:15 PM 39.2 °F 29.3 °F 17.6 °F 42% 29.70 in 10.0 mi NW 20.7 mph 33.4 mph N/A   Clear
4:35 PM 39.2 °F 30.8 °F 17.6 °F 42% 29.70 in 10.0 mi NW 15.0 mph 39.1 mph N/A   Clear
4:55 PM 37.4 °F 27.8 °F 17.6 °F 45% 29.70 in 10.0 mi WNW 17.3 mph 34.5 mph N/A   Clear
5:15 PM 37.4 °F 26.4 °F 17.6 °F 45% 29.71 in 10.0 mi NW 23.0 mph 39.1 mph N/A   Clear
5:35 PM 37.4 °F 29.3 °F 17.6 °F 45% 29.72 in 10.0 mi NW 12.7 mph 26.5 mph N/A   Clear
5:55 PM 37.4 °F 32.1 °F 17.6 °F 45% 29.73 in 10.0 mi NW 6.9 mph 20.7 mph N/A   Clear
6:15 PM 37.4 °F 32.1 °F 17.6 °F 45% 29.74 in 10.0 mi West 6.9 mph 19.6 mph N/A   Clear
6:35 PM 37.4 °F 30.8 °F 15.8 °F 41% 29.75 in 10.0 mi NW 9.2 mph 19.6 mph N/A   Clear
6:55 PM 37.4 °F 28.5 °F 15.8 °F 41% 29.75 in 10.0 mi WNW 15.0 mph 24.2 mph N/A   Clear
7:15 PM 37.4 °F 26.6 °F 15.8 °F 41% 29.76 in 10.0 mi NW 21.9 mph 36.8 mph N/A   Clear
7:35 PM 37.4 °F 27.2 °F 15.8 °F 41% 29.76 in 10.0 mi NW 19.6 mph 27.6 mph N/A   Clear
7:55 PM 37.4 °F 27.2 °F 14.0 °F 38% 29.76 in 10.0 mi NW 19.6 mph 29.9 mph N/A   Clear
8:15 PM 37.4 °F 30.3 °F 12.2 °F 36% 29.76 in 10.0 mi WNW 10.4 mph 23.0 mph N/A   Clear
8:35 PM 37.4 °F 29.8 °F 12.2 °F 36% 29.76 in 10.0 mi West 11.5 mph 26.5 mph N/A   Clear
8:55 PM 37.4 °F 29.3 °F 12.2 °F 36% 29.76 in 10.0 mi WNW 12.7 mph 20.7 mph N/A   Clear
9:15 PM 37.4 °F 29.8 °F 10.4 °F 33% 29.76 in 10.0 mi WNW 11.5 mph 19.6 mph N/A   Clear
9:35 PM 37.4 °F 30.8 °F 10.4 °F 33% 29.75 in 10.0 mi West 9.2 mph 24.2 mph N/A   Clear
9:55 PM 37.4 °F 28.5 °F 10.4 °F 33% 29.76 in 10.0 mi WNW 15.0 mph 27.6 mph N/A   Clear
10:15 PM 37.4 °F 27.2 °F 10.4 °F 33% 29.76 in 10.0 mi WNW 19.6 mph 32.2 mph N/A   Clear
10:35 PM 37.4 °F 28.5 °F 10.4 °F 33% 29.77 in 10.0 mi WNW 15.0 mph 26.5 mph N/A   Clear
10:55 PM 35.6 °F 24.2 °F 10.4 °F 35% 29.77 in 10.0 mi WNW 21.9 mph 31.1 mph N/A   Clear